This is the latest recevied weather packets stored in our database for station/object AB2HM. If no packets are shown the sender has not sent any weather packets the latest 10 day(s).
| Time | Temp. | Humidity | Pressure | Rain* | Wind** | Luminosity | Snow |
|---|---|---|---|---|---|---|---|
| 1777940088 | 20.56° C | 41% | 1011.3 hPa | 0 mm | - | - | - |
| 1777936471 | 22.78° C | 35% | 1011.1 hPa | 0 mm | - | - | - |
| 1777934648 | 23.33° C | 32% | 1011 hPa | 0 mm | - | - | - |
| 1777932841 | 23.33° C | 30% | 1011.1 hPa | 0 mm | - | - | - |
| 1777931027 | 23.89° C | 30% | 1011.2 hPa | 0 mm | - | - | - |
| 1777929227 | 24.44° C | 30% | 1011.1 hPa | 0 mm | - | - | - |
| 1777927415 | 24.44° C | 29% | 1011.2 hPa | 0 mm | - | - | - |
| 1777925611 | 23.89° C | 28% | 1011.3 hPa | 0 mm | - | - | - |
| 1777923801 | 24.44° C | 28% | 1011.6 hPa | 0 mm | - | - | - |
| 1777921993 | 24.44° C | 29% | 1011.9 hPa | 0 mm | - | - | - |
| 1777920187 | 22.78° C | 29% | 1012.3 hPa | 0 mm | - | - | - |
| 1777918381 | 23.33° C | 30% | 1012.8 hPa | 0 mm | - | - | - |
| 1777916581 | 22.78° C | 30% | 1013.2 hPa | 0 mm | - | - | - |
| 1777914775 | 22.22° C | 30% | 1013.6 hPa | 0 mm | - | - | - |
| 1777912964 | 21.67° C | 30% | 1013.8 hPa | 0 mm | - | - | - |
| 1777911161 | 21.67° C | 33% | 1014.4 hPa | 0 mm | - | - | - |
| 1777909354 | 20.56° C | 39% | 1014.6 hPa | 0 mm | - | - | - |
| 1777907555 | 20° C | 41% | 1015 hPa | 0 mm | - | - | - |
| 1777905744 | 18.89° C | 47% | 1015 hPa | 0 mm | - | - | - |
| 1777903915 | 17.78° C | 50% | 1015.2 hPa | 0 mm | - | - | - |
| 1777902109 | 17.22° C | 54% | 1015.3 hPa | 0 mm | - | - | - |
| 1777900308 | 16.11° C | 61% | 1015.6 hPa | 0 mm | - | - | - |
| 1777898504 | 13.89° C | 70% | 1015.9 hPa | 0 mm | - | - | - |
| 1777896702 | 13.33° C | 74% | 1016 hPa | 0 mm | - | - | - |
| 1777894898 | 11.11° C | 80% | 1016.1 hPa | 0 mm | - | - | - |
* Rain latest hour (hover to see other rain measurements)
** Current wind speed in m/s (hover to see current wind gust speed)